Data for 04/11/2016

Time Sea-Level Adjusted Pressure Absolute Pressure Temperature Relative Humidity Dew Point   
(mb) (inHg) (mb) (inHg) (C) (F) (%) (C) (F)
00:05 1017 30.03 846 24.98 4.1 39.4 48 -5.9 21.3
00:10 1017 30.03 846 24.98 4 39.2 49 -5.9 21.4
00:15 1017 30.03 846 24.98 3.9 39 49 -5.9 21.3
00:20 1017 30.03 846 24.98 3.8 38.8 49 -6 21.2
00:25 1017 30.03 846 24.98 3.6 38.5 49 -6.1 20.9
00:30 1017 30.03 846 24.98 3.5 38.4 49 -6.2 20.8
00:35 1017 30.03 846 24.98 3.5 38.3 48 -6.4 20.4
00:40 1017 30.03 846 24.98 3.4 38.1 48 -6.5 20.3
00:45 1017 30.03 846 24.98 3.3 37.9 48 -6.6 20
00:50 1017 30.03 846 24.98 3.2 37.7 48 -6.8 19.8
00:55 1017 30.03 846 24.98 3.1 37.5 48 -6.9 19.6
01:00 1017 30.03 846 24.98 3 37.3 48 -7 19.4
01:05 1017 30.03 846 24.98 2.9 37.2 48 -7.1 19.3
01:10 1017 30.03 846 24.98 2.8 37.1 48 -7.1 19.2
01:15 1017 30.03 846 24.98 2.8 37 48 -7.2 19
01:20 1017 30.03 846 24.98 2.7 36.9 48 -7.4 18.8
01:25 1017 30.03 846 24.98 2.7 36.8 47 -7.5 18.5
01:30 1017 30.03 846 24.98 2.7 36.8 47 -7.6 18.3
01:35 1017 30.03 846 24.98 2.6 36.7 47 -7.7 18.2
01:40 1017 30.03 846 24.98 2.6 36.6 47 -7.7 18.1
01:45 1017 30.03 846 24.98 2.5 36.5 47 -7.8 18
01:50 1017 30.03 846 24.98 2.4 36.4 47 -7.9 17.8
01:55 1017 30.03 846 24.98 2.4 36.4 46 -8.1 17.5
02:00 1017 30.03 846 24.98 2.5 36.4 45 -8.3 17.1
02:05 1017 30.03 846 24.98 2.5 36.6 45 -8.3 17.1
02:10 1017 30.03 846 24.98 2.5 36.6 45 -8.3 17.1
02:15 1017 30.03 846 24.98 2.5 36.5 44 -8.4 16.8
02:20 1017 30.03 846 24.98 2.5 36.5 44 -8.4 16.8
02:25 1017 30.03 846 24.98 2.5 36.4 44 -8.5 16.7
02:30 1017 30.03 846 24.98 2.4 36.4 45 -8.5 16.8
02:35 1017 30.03 846 24.98 2.4 36.3 44 -8.6 16.5
02:40 1017 30.03 846 24.98 2.3 36.2 44 -8.7 16.4
02:45 1017 30.03 846 24.98 2.3 36.2 44 -8.7 16.4
02:50 1017 30.03 846 24.98 2.3 36.1 44 -8.7 16.3
02:55 1017 30.03 846 24.98 2.2 36 45 -8.6 16.5
03:00 1017 30.03 846 24.98 2.1 35.8 45 -8.5 16.7
03:05 1017 30.03 846 24.98 2 35.6 47 -8.3 17.1
03:10 1017 30.03 846 24.98 1.9 35.4 48 -8.1 17.4
03:15 1017 30.03 846 24.98 1.8 35.2 49 -7.9 17.8
03:20 1017 30.03 846 24.98 1.7 35 50 -7.7 18.1
03:25 1017 30.03 846 24.98 1.6 35 49 -7.9 17.8
03:30 1017 30.03 846 24.98 1.6 34.9 50 -7.7 18.1
03:35 1017 30.03 846 24.98 1.6 34.8 49 -7.9 17.7
03:40 1017 30.03 846 24.98 1.6 34.8 50 -7.7 18.1
03:45 1017 30.03 846 24.98 1.5 34.8 52 -7.4 18.7
03:50 1017 30.03 846 24.98 1.5 34.7 52 -7.3 18.9
03:55 1017 30.03 846 24.98 1.4 34.6 52 -7.3 18.9
04:00 1017 30.03 846 24.98 1.3 34.4 53 -7.3 18.9
04:05 1017 30.03 846 24.98 1.2 34.2 53 -7.2 19
04:10 1017 30.03 846 24.98 1.3 34.3 54 -7 19.4
04:15 1017 30.03 846 24.98 1.3 34.3 55 -6.9 19.5
04:20 1017 30.03 846 24.98 1.3 34.3 54 -6.9 19.6
04:25 1017 30.03 846 24.98 1.3 34.3 54 -7 19.5
04:30 1017 30.03 846 24.98 1.3 34.3 54 -7 19.3
04:35 1017 30.03 846 24.98 1.3 34.3 54 -7.1 19.3
04:40 1017 30.03 846 24.98 1.3 34.4 54 -7.1 19.3
04:45 1017 30.03 846 24.98 1.3 34.4 54 -7 19.3
04:50 1017 30.03 846 24.98 1.3 34.4 54 -7 19.3
04:55 1017 30.03 846 24.98 1.3 34.4 54 -7 19.3
05:00 1017 30.03 846 24.98 1.3 34.3 54 -7.1 19.3
05:05 1017 30.03 846 24.98 1.3 34.3 54 -7.1 19.2
05:10 1017 30.03 846 24.98 1.3 34.3 54 -7 19.4
05:15 1017 30.03 846 24.98 1.2 34.2 54 -7 19.3
05:20 1017 30.03 846 24.98 1.3 34.3 54 -6.9 19.6
05:25 1017 30.03 846 24.98 1.3 34.4 55 -6.8 19.7
05:30 1017 30.03 846 24.98 1.2 34.2 55 -6.8 19.8
05:35 1017 30.03 846 24.98 1.1 33.9 55 -6.9 19.5
05:40 1017 30.03 846 24.98 1 33.9 55 -7 19.3
05:45 1017 30.03 847 25.01 0.9 33.7 56 -7 19.5
05:50 1017 30.03 847 25.01 0.9 33.6 56 -6.9 19.5
05:55 1017 30.03 847 25.01 1 33.7 56 -6.8 19.7
06:00 1017 30.03 847 25.01 1 33.8 57 -6.7 20
06:05 1017 30.03 847 25.01 1.1 33.9 57 -6.6 20.1
06:10 1017 30.03 847 25.01 1.1 33.9 57 -6.5 20.4
06:15 1017 30.03 847 25.01 1.2 34.2 57 -6.4 20.4
06:20 1017 30.03 847 25.01 1.3 34.4 57 -6.3 20.6
06:25 1017 30.03 847 25.01 1.5 34.6 56 -6.3 20.6
06:30 1017 30.03 847 25.01 1.6 34.8 56 -6.2 20.8
06:35 1017 30.03 847 25.01 1.8 35.2 56 -6.1 20.9
06:40 1017 30.03 847 25.01 2.1 35.8 55 -6 21.2
06:45 1017 30.03 847 25.01 2.2 36 55 -5.9 21.3
06:50 1017 30.03 847 25.01 2.3 36.2 55 -5.8 21.5
06:55 1017 30.03 847 25.01 2.5 36.5 55 -5.7 21.7
07:00 1017 30.03 847 25.01 2.6 36.6 54 -5.7 21.7
07:05 1017 30.03 847 25.01 2.7 36.9 54 -5.7 21.8
07:10 1017 30.03 847 25.01 3 37.4 54 -5.5 22.1
07:15 1017 30.03 847 25.01 3.5 38.3 52 -5.4 22.4
07:20 1018 30.06 847 25.01 3.7 38.7 53 -5 22.9
07:25 1018 30.06 847 25.01 4 39.1 52 -5 23.1
07:30 1018 30.06 847 25.01 4.5 40.1 51 -4.8 23.4
07:35 1018 30.06 847 25.01 4.6 40.3 52 -4.5 23.9
07:40 1018 30.06 847 25.01 5.2 41.3 49 -4.5 23.9
07:45 1018 30.06 847 25.01 5.7 42.2 49 -4.3 24.3
07:50 1018 30.06 847 25.01 6.2 43.2 47 -4.2 24.5
07:55 1018 30.06 847 25.01 6.5 43.6 46 -4.2 24.4
08:00 1018 30.06 847 25.01 6.8 44.2 46 -4.1 24.6
08:05 1018 30.06 847 25.01 7.4 45.3 44 -4 24.8
08:10 1018 30.06 847 25.01 7.3 45.2 45 -3.8 25.1
08:15 1018 30.06 847 25.01 7.7 45.8 44 -3.9 24.9
08:20 1018 30.06 847 25.01 8 46.4 42 -4 24.8
08:25 1018 30.06 847 25.01 8.4 47.2 42 -3.7 25.4
08:30 1018 30.06 847 25.01 8.2 46.7 43 -3.5 25.7
08:35 1018 30.06 847 25.01 7.9 46.3 43 -4 24.8
08:40 1018 30.06 847 25.01 8.8 47.8 40 -3.9 24.9
08:45 1018 30.06 847 25.01 9.2 48.5 40 -3.7 25.3
08:50 1018 30.06 847 25.01 9.4 48.8 40 -3.6 25.5
08:55 1018 30.06 847 25.01 9.2 48.5 40 -3.8 25.2
09:00 1018 30.06 847 25.01 9.3 48.8 40 -3.6 25.5
09:05 1018 30.06 847 25.01 9.8 49.7 39 -3.4 25.8
09:10 1018 30.06 847 25.01 9.6 49.2 39 -3.6 25.6
09:15 1018 30.06 847 25.01 10.1 50.2 37 -4 24.9
09:20 1018 30.06 847 25.01 10.6 51.1 38 -3.2 26.3
09:25 1018 30.06 847 25.01 10.1 50.2 40 -3 26.6
09:30 1018 30.06 847 25.01 9.5 49.1 40 -3.3 26
09:35 1018 30.06 847 25.01 10.3 50.5 38 -3.5 25.8
09:40 1018 30.06 847 25.01 10.7 51.2 36 -3.9 25
09:45 1018 30.06 847 25.01 10.9 51.7 37 -3 26.5
09:50 1018 30.06 847 25.01 10.4 50.7 39 -2.9 26.7
09:55 1018 30.06 847 25.01 11 51.8 36 -3.6 25.4
10:00 1018 30.06 847 25.01 11.4 52.5 35 -3.3 26.1
10:05 1018 30.06 847 25.01 11.3 52.3 35 -3.5 25.6
10:10 1018 30.06 847 25.01 11.8 53.2 36 -2.9 26.9
10:15 1017 30.03 847 25.01 12.1 53.8 35 -2.9 26.8
10:20 1017 30.03 847 25.01 12.3 54.2 33 -3.5 25.7
10:25 1017 30.03 847 25.01 12.8 55 32 -3.2 26.2
10:30 1018 30.06 847 25.01 12.8 55 32 -3.2 26.2
10:35 1017 30.03 847 25.01 12.2 53.9 36 -2.6 27.4
10:40 1017 30.03 847 25.01 11.5 52.7 35 -3.5 25.7
10:45 1017 30.03 847 25.01 12.2 54 34 -3.3 26
10:50 1017 30.03 847 25.01 13 55.3 33 -3 26.6
10:55 1017 30.03 847 25.01 13.2 55.7 33 -2.6 27.3
11:00 1017 30.03 847 25.01 12.4 54.4 32 -3.5 25.6
11:05 1017 30.03 846 24.98 13.8 56.9 31 -2.8 26.9
11:10 1017 30.03 846 24.98 13.4 56.1 32 -3 26.5
11:15 1017 30.03 846 24.98 13.5 56.2 32 -2.9 26.7
11:20 1017 30.03 846 24.98 13.4 56.1 31 -3.1 26.4
11:25 1017 30.03 846 24.98 13.3 56 32 -2.8 26.9
11:30 1017 30.03 846 24.98 13.7 56.7 32 -2.6 27.2
11:35 1017 30.03 846 24.98 13.4 56 32 -2.8 27
11:40 1017 30.03 846 24.98 14.1 57.4 31 -2.9 26.8
11:45 1017 30.03 846 24.98 14.6 58.2 31 -2.4 27.6
11:50 1017 30.03 846 24.98 15.2 59.4 29 -2.8 27
11:55 1017 30.03 846 24.98 15.9 60.6 29 -1.9 28.6
12:00 1017 30.03 846 24.98 15.7 60.3 29 -2.3 27.9
12:05 1017 30.03 846 24.98 15.4 59.6 30 -2.2 28
12:10 1017 30.03 846 24.98 15.9 60.6 28 -2.3 27.8
12:15 1017 30.03 846 24.98 16.1 61.1 29 -1.9 28.7
12:20 1017 30.03 846 24.98 16.7 62.1 29 -1.5 29.3
12:25 1017 30.03 846 24.98 16.1 61.1 30 -1.4 29.4
12:30 1017 30.03 846 24.98 16.1 61 28 -2.1 28.3
12:35 1017 30.03 846 24.98 16.8 62.2 27 -2.3 27.8
12:40 1017 30.03 846 24.98 16.9 62.4 27 -2.1 28.2
12:45 1017 30.03 846 24.98 16.7 62 29 -1.6 29.2
12:50 1017 30.03 846 24.98 17 62.5 28 -1.7 29
12:55 1017 30.03 846 24.98 17 62.5 28 -1.6 29.1
13:00 1017 30.03 846 24.98 17.1 62.7 26 -2.4 27.7
13:05 1017 30.03 846 24.98 17.5 63.5 25 -2.6 27.3
13:10 1017 30.03 846 24.98 16.8 62.2 28 -1.5 29.3
13:15 1017 30.03 846 24.98 16.1 61 28 -2.5 27.4
13:20 1017 30.03 846 24.98 16.6 61.9 27 -2.3 27.9
13:25 1016 30 846 24.98 16.7 62.1 27 -2.1 28.3
13:30 1016 30 846 24.98 17.6 63.7 26 -1.9 28.6
13:35 1016 30 846 24.98 17.7 63.8 26 -1.9 28.6
13:40 1016 30 846 24.98 17.9 64.2 25 -2.5 27.5
13:45 1016 30 846 24.98 17.9 64.3 26 -1.6 29.2
13:50 1016 30 846 24.98 17.4 63.3 26 -2 28.4
13:55 1016 30 846 24.98 17.8 64 26 -1.6 29.1
14:00 1016 30 845 24.95 18.3 65 27 -1 30.1
14:05 1016 30 845 24.95 17.7 63.8 27 -1.5 29.3
14:10 1016 30 845 24.95 18.1 64.5 25 -2.3 27.9
14:15 1016 30 845 24.95 18.3 65 25 -1.8 28.7
14:20 1016 30 845 24.95 18.6 65.5 25 -1.5 29.3
14:25 1016 30 845 24.95 18.4 65.1 25 -1.9 28.6
14:30 1016 30 845 24.95 17.7 63.8 26 -1.8 28.8
14:35 1016 30 845 24.95 18.6 65.4 25 -1.6 29.2
14:40 1016 30 845 24.95 19 66.2 24 -2 28.4
14:45 1016 30 845 24.95 18.9 66 25 -1.4 29.5
14:50 1016 30 845 24.95 18.6 65.4 24 -2.5 27.6
14:55 1016 30 845 24.95 19.2 66.5 23 -2.3 27.9
15:00 1016 30 845 24.95 19 66.1 24 -1.9 28.5
15:05 1016 30 845 24.95 18.8 65.9 22 -3.1 26.4
15:10 1015 29.97 845 24.95 19.2 66.5 23 -2.3 27.9
15:15 1015 29.97 845 24.95 19.2 66.5 23 -2.2 28
15:20 1015 29.97 845 24.95 19.4 66.9 22 -2.5 27.4
15:25 1015 29.97 845 24.95 19.5 67.1 22 -2.6 27.3
15:30 1015 29.97 845 24.95 19.1 66.4 21 -3.5 25.8
15:35 1015 29.97 845 24.95 19.2 66.5 21 -3.6 25.5
15:40 1015 29.97 845 24.95 19.5 67 20 -3.8 25.1
15:45 1015 29.97 845 24.95 19.3 66.8 20 -4 24.8
15:50 1015 29.97 845 24.95 19.9 67.8 21 -3.2 26.3
15:55 1015 29.97 845 24.95 20 68 21 -3 26.6
16:00 1015 29.97 845 24.95 19.8 67.7 20 -3.5 25.7
16:05 1015 29.97 845 24.95 19.9 67.9 19 -4.1 24.7
16:10 1015 29.97 844 24.92 19.7 67.5 20 -4 24.7
16:15 1015 29.97 844 24.92 19.9 67.8 20 -3.8 25.1
16:20 1015 29.97 844 24.92 19.9 67.7 21 -2.7 27.1
16:25 1015 29.97 844 24.92 19.5 67.2 21 -3.2 26.3
16:30 1015 29.97 844 24.92 19.5 67.2 20 -3.7 25.3
16:35 1015 29.97 844 24.92 19.7 67.4 21 -3.2 26.2
16:40 1015 29.97 844 24.92 19.7 67.4 21 -3.2 26.3
16:45 1015 29.97 844 24.92 19.7 67.5 21 -3.1 26.4
16:50 1015 29.97 844 24.92 19.6 67.4 21 -3.2 26.3
16:55 1015 29.97 844 24.92 19.6 67.2 21 -3.2 26.2
17:00 1015 29.97 844 24.92 19.6 67.2 22 -2.7 27.1
17:05 1015 29.97 844 24.92 19.1 66.4 21 -3.3 26
17:10 1015 29.97 844 24.92 19 66.3 21 -3.4 25.8
17:15 1015 29.97 844 24.92 18.9 66 22 -3.3 26.1
17:20 1015 29.97 844 24.92 19.2 66.5 22 -3.2 26.2
17:25 1015 29.97 844 24.92 19.2 66.6 22 -3.2 26.3
17:30 1015 29.97 844 24.92 19 66.1 22 -3.2 26.2
17:35 1015 29.97 844 24.92 18.8 65.9 22 -3.3 26.1
17:40 1015 29.97 844 24.92 18.7 65.7 22 -3.6 25.5
17:45 1015 29.97 844 24.92 18.6 65.5 22 -3.3 26
17:50 1015 29.97 844 24.92 18.5 65.3 22 -3.6 25.5
17:55 1015 29.97 844 24.92 18.4 65 22 -3.7 25.3
18:00 1015 29.97 844 24.92 18.3 65 22 -3.5 25.6
18:05 1015 29.97 844 24.92 18.3 64.9 22 -3.8 25.2
18:10 1015 29.97 844 24.92 18.2 64.8 23 -3.4 25.9
18:15 1015 29.97 844 24.92 18.2 64.7 23 -3.2 26.2
18:20 1015 29.97 844 24.92 18.2 64.7 22 -3.6 25.5
18:25 1015 29.97 844 24.92 18.2 64.7 23 -3.2 26.2
18:30 1015 29.97 844 24.92 18.1 64.5 23 -3.2 26.3
18:35 1015 29.97 844 24.92 18 64.3 24 -2.6 27.4
18:40 1015 29.97 844 24.92 17.8 64.1 24 -2.8 27
18:45 1015 29.97 844 24.92 17.7 63.9 23 -3.3 26
18:50 1015 29.97 844 24.92 17.7 63.8 24 -2.8 27
18:55 1015 29.97 844 24.92 17.5 63.6 24 -3.3 26
19:00 1015 29.97 844 24.92 17.4 63.2 24 -3 26.6
19:05 1015 29.97 844 24.92 17.2 63 25 -2.8 26.9
19:10 1015 29.97 844 24.92 17.1 62.7 25 -2.8 27
19:15 1015 29.97 844 24.92 16.9 62.3 26 -2.7 27.1
19:20 1015 29.97 844 24.92 16.3 61.3 30 -1.1 30.1
19:25 1015 29.97 844 24.92 15.2 59.4 34 -0.6 30.9
19:30 1015 29.97 844 24.92 14 57.2 36 -0.6 30.9
19:35 1015 29.97 844 24.92 13.4 56.1 37 -0.8 30.6
19:40 1015 29.97 845 24.95 13.1 55.5 43 0.7 33.3
19:45 1015 29.97 845 24.95 13.1 55.6 39 -0.6 31
19:50 1015 29.97 845 24.95 12.9 55.3 39 -0.6 30.8
19:55 1015 29.97 845 24.95 12.7 54.8 39 -1 30.2
20:00 1016 30 845 24.95 12.2 54 39 -1.1 30
20:05 1016 30 845 24.95 12.1 53.9 39 -1.2 29.8
20:10 1016 30 845 24.95 12 53.5 39 -1.5 29.3
20:15 1016 30 845 24.95 11.8 53.2 40 -1.4 29.5
20:20 1016 30 845 24.95 11.8 53.2 40 -1.2 29.8
20:25 1016 30 845 24.95 11.8 53.3 40 -1.4 29.5
20:30 1016 30 845 24.95 11.7 53 40 -1.6 29.2
20:35 1016 30 845 24.95 11.6 52.9 40 -1.6 29.1
20:40 1016 30 845 24.95 11.5 52.7 40 -1.6 29
20:45 1016 30 845 24.95 11.6 52.8 39 -1.9 28.6
20:50 1016 30 845 24.95 11.6 52.8 38 -2.1 28.2
20:55 1016 30 845 24.95 11.6 52.9 39 -2 28.5
21:00 1016 30 845 24.95 11.5 52.7 38 -2.3 27.8
21:05 1016 30 845 24.95 11.5 52.7 37 -2.7 27.2
21:10 1016 30 845 24.95 11.5 52.7 37 -2.6 27.3
21:15 1016 30 845 24.95 11.3 52.4 38 -2.5 27.6
21:20 1016 30 845 24.95 10.9 51.6 39 -2.5 27.5
21:25 1016 30 845 24.95 10.8 51.4 39 -2.7 27.2
21:30 1016 30 845 24.95 10.7 51.2 41 -1.9 28.7
21:35 1016 30 845 24.95 10.7 51.2 39 -2.7 27.2
21:40 1016 30 845 24.95 10.4 50.7 40 -2.7 27.1
21:45 1016 30 846 24.98 10.2 50.4 41 -2.5 27.5
21:50 1016 30 846 24.98 10 50 41 -2.6 27.4
21:55 1016 30 846 24.98 10 49.9 41 -2.8 27
22:00 1016 30 846 24.98 9.8 49.6 42 -2.5 27.4
22:05 1016 30 846 24.98 9.7 49.4 42 -2.7 27.1
22:10 1016 30 846 24.98 9.6 49.2 43 -2.5 27.5
22:15 1017 30.03 846 24.98 9.5 49.1 42 -2.7 27.1
22:20 1017 30.03 846 24.98 9.6 49.2 42 -2.6 27.2
22:25 1017 30.03 846 24.98 9.6 49.2 42 -2.7 27.1
22:30 1017 30.03 846 24.98 9.5 49.2 43 -2.5 27.4
22:35 1017 30.03 846 24.98 9.3 48.7 43 -2.7 27.1
22:40 1017 30.03 846 24.98 9.2 48.6 43 -2.8 27
22:45 1017 30.03 846 24.98 8.9 48.1 44 -2.7 27.2
22:50 1017 30.03 846 24.98 8.7 47.6 44 -2.9 26.8
22:55 1017 30.03 846 24.98 8.8 47.8 43 -3.1 26.4
23:00 1017 30.03 846 24.98 8.9 48.1 43 -2.9 26.7
23:05 1017 30.03 846 24.98 8.9 48 43 -2.9 26.9
23:10 1017 30.03 846 24.98 8.8 47.8 43 -3 26.5
23:15 1017 30.03 846 24.98 8.7 47.6 44 -2.9 26.8
23:20 1017 30.03 846 24.98 8.6 47.5 44 -2.9 26.8
23:25 1017 30.03 846 24.98 8.5 47.3 44 -3 26.5
23:30 1017 30.03 846 24.98 8.7 47.6 43 -3.2 26.2
23:35 1017 30.03 846 24.98 9 48.1 42 -3.3 26.1
23:40 1017 30.03 846 24.98 8.9 47.9 43 -3.1 26.5
23:45 1017 30.03 846 24.98 8.5 47.3 44 -2.9 26.7
23:50 1017 30.03 846 24.98 8.1 46.6 45 -3.1 26.4
23:55 1017 30.03 846 24.98 8.1 46.6 44 -3.3 26.1
24:00 1017 30.03 846 24.98 8.2 46.8 44 -3.2 26.2